Time;durP1;ratioP1;P1;durP2;ratioP2;P2;SDS_P1;SDS_P2;PMS_P1;PMS_P2;Temp;Humidity;BMP_temperature;BMP_pressure;BME280_temperature;BME280_humidity;BME280_pressure;Samples;Min_cycle;Max_cycle;Signal;HPM_P1;HPM_P2
2024/03/16 00:00:45;;;;;;;;;4.17;1.17;;;;;14.04;67.85;101394.34;1999077;28;2737769;-78
2024/03/16 00:01:58;;;;;;;;;3.00;1.00;;;;;14.05;67.60;101401.34;2013383;28;2739868;-78
2024/03/16 00:03:11;;;;;;;;;0.83;0.83;;;;;14.11;66.52;101409.97;2016630;28;2732578;-78
2024/03/16 00:04:25;;;;;;;;;4.33;2.00;;;;;14.01;67.52;101394.47;2026999;28;2742996;-77
2024/03/16 00:05:38;;;;;;;;;4.00;1.17;;;;;14.06;67.37;101418.06;2024511;28;2737760;-77
2024/03/16 00:06:51;;;;;;;;;1.83;1.17;;;;;14.00;66.84;101407.75;2022726;28;2734652;-77
2024/03/16 00:08:05;;;;;;;;;5.00;1.67;;;;;14.01;66.70;101422.66;2022937;28;2739860;-78
2024/03/16 00:09:20;;;;;;;;;2.83;2.00;;;;;14.05;66.33;101424.28;2012182;28;2739852;-77
2024/03/16 00:10:33;;;;;;;;;1.00;0.50;;;;;13.98;65.38;101422.75;2007297;28;2729479;-77
2024/03/16 00:11:46;;;;;;;;;1.00;1.00;;;;;13.99;66.14;101427.16;2014979;28;2734141;-77
2024/03/16 00:13:00;;;;;;;;;2.33;1.50;;;;;13.95;65.97;101434.34;2011710;28;2741928;-77
2024/03/16 00:14:13;;;;;;;;;1.17;0.00;;;;;13.94;64.86;101433.47;2006167;28;2710735;-76
2024/03/16 00:15:26;;;;;;;;;0.00;0.00;;;;;13.90;65.76;101431.84;2029769;28;2729936;-77
2024/03/16 00:16:40;;;;;;;;;0.00;0.00;;;;;13.95;65.48;101447.56;2011373;28;2725311;-76
2024/03/16 00:17:53;;;;;;;;;0.50;0.00;;;;;13.82;65.86;101425.97;2046521;28;2734645;-77
2024/03/16 00:19:06;;;;;;;;;0.00;0.00;;;;;13.92;65.56;101456.44;2013613;28;2742012;-77
2024/03/16 00:20:19;;;;;;;;;3.00;0.67;;;;;13.86;65.25;101438.16;2007889;28;2733600;-77
2024/03/16 00:21:33;;;;;;;;;4.00;0.83;;;;;13.85;64.77;101433.81;2020276;28;2737766;-76
2024/03/16 00:22:46;;;;;;;;;1.50;0.00;;;;;13.92;65.85;101440.59;2023072;28;2736748;-76
2024/03/16 00:23:59;;;;;;;;;3.00;0.00;;;;;13.86;65.38;101434.66;2023204;28;2732570;-76
2024/03/16 00:25:14;;;;;;;;;0.00;0.00;;;;;13.93;65.49;101450.22;2014909;28;2727837;-76
2024/03/16 00:26:27;;;;;;;;;2.33;1.17;;;;;13.92;65.68;101445.00;2001822;28;2736744;-76
2024/03/16 00:27:40;;;;;;;;;2.00;0.17;;;;;13.92;66.17;101448.53;2006815;28;2729444;-77
2024/03/16 00:28:54;;;;;;;;;0.00;0.00;;;;;13.97;64.99;101451.00;2015399;28;2728388;-77
2024/03/16 00:30:07;;;;;;;;;1.00;1.00;;;;;13.93;65.37;101449.38;2036985;28;2744007;-76
2024/03/16 00:31:20;;;;;;;;;0.00;0.00;;;;;13.92;65.85;101445.88;2007490;28;2727360;-76
2024/03/16 00:32:34;;;;;;;;;0.17;0.17;;;;;13.95;65.72;101445.75;2033757;28;2738131;-76
2024/03/16 00:33:47;;;;;;;;;0.67;0.00;;;;;13.94;65.45;101429.97;2014577;28;2722200;-76
2024/03/16 00:35:00;;;;;;;;;1.00;1.00;;;;;13.94;65.53;101433.47;2012129;28;2740309;-76
2024/03/16 00:36:14;;;;;;;;;1.67;1.00;;;;;14.05;65.85;101450.72;2005758;28;2729425;-76
2024/03/16 00:37:28;;;;;;;;;1.33;0.33;;;;;14.03;65.65;101448.13;2007016;28;2740902;-76
2024/03/16 00:38:42;;;;;;;;;3.67;0.00;;;;;14.05;64.94;101446.28;2020323;28;2731505;-76
2024/03/16 00:39:55;;;;;;;;;0.00;0.00;;;;;14.03;65.37;101447.25;2009182;28;2729436;-76
2024/03/16 00:41:08;;;;;;;;;0.17;0.17;;;;;14.03;65.38;101447.25;2007827;28;2729457;-76
2024/03/16 00:42:21;;;;;;;;;0.17;0.17;;;;;14.09;65.45;101448.81;2008050;28;2727334;-76
2024/03/16 00:43:34;;;;;;;;;0.83;0.00;;;;;14.10;65.72;101463.78;2012096;28;2733678;-75
2024/03/16 00:44:47;;;;;;;;;1.00;1.00;;;;;14.07;64.91;101460.28;2011078;28;2728411;-76
2024/03/16 00:46:01;;;;;;;;;0.50;0.00;;;;;14.06;64.91;101457.72;2005426;28;2729432;-76
2024/03/16 00:47:14;;;;;;;;;1.83;0.00;;;;;14.01;64.95;101449.09;2010391;28;2725297;-76
2024/03/16 00:48:27;;;;;;;;;1.17;0.50;;;;;14.06;64.79;101466.50;2012874;28;2736077;-76
2024/03/16 00:49:40;;;;;;;;;0.00;0.00;;;;;14.07;64.65;101460.28;2005100;28;2729421;-79
2024/03/16 00:50:54;;;;;;;;;0.00;0.00;;;;;14.03;63.86;101463.97;1997060;28;2735691;-77
2024/03/16 00:52:07;;;;;;;;;1.00;0.00;;;;;13.97;64.80;101468.63;2001056;28;2725294;-77
2024/03/16 00:53:20;;;;;;;;;0.00;0.00;;;;;13.99;64.63;101461.50;2011828;28;2729510;-78
2024/03/16 00:54:33;;;;;;;;;0.67;0.67;;;;;13.95;64.37;101464.25;1999950;28;2734636;-76
2024/03/16 00:55:46;;;;;;;;;0.00;0.00;;;;;13.99;64.88;101464.16;2016230;28;2731555;-76
2024/03/16 00:57:00;;;;;;;;;0.00;0.00;;;;;14.00;65.04;101476.47;2023683;28;2725746;-76
2024/03/16 00:58:13;;;;;;;;;0.67;0.33;;;;;13.96;64.73;101459.84;2022625;28;2735706;-76
2024/03/16 00:59:28;;;;;;;;;0.67;0.67;;;;;14.02;64.68;101474.63;2022223;28;2737793;-76
2024/03/16 01:00:41;;;;;;;;;1.67;1.00;;;;;14.01;64.37;101465.81;2012734;28;2739833;-76
2024/03/16 01:01:54;;;;;;;;;1.33;1.00;;;;;14.04;63.78;101470.13;2014055;28;2735734;-77
2024/03/16 01:03:07;;;;;;;;;0.33;0.00;;;;;14.02;64.11;101479.91;2010424;28;2724288;-77
2024/03/16 01:04:21;;;;;;;;;0.17;0.00;;;;;14.00;64.49;101479.09;2029827;28;2727333;-76
2024/03/16 01:05:34;;;;;;;;;0.00;0.00;;;;;14.00;63.10;101481.75;2013710;28;2724224;-77
2024/03/16 01:06:47;;;;;;;;;0.00;0.00;;;;;13.98;64.28;101478.25;2007586;28;2725294;-76
2024/03/16 01:08:00;;;;;;;;;0.00;0.00;;;;;13.96;63.85;101483.63;2005173;28;2724228;-77
2024/03/16 01:09:16;;;;;;;;;0.00;0.00;;;;;13.92;63.62;101482.00;2024506;28;2717089;-76
2024/03/16 01:10:29;;;;;;;;;0.00;0.00;;;;;13.94;63.31;101485.47;2039145;28;2721489;-76
2024/03/16 01:11:43;;;;;;;;;0.00;0.00;;;;;13.91;63.89;101486.44;2037134;28;2729448;-76
2024/03/16 01:12:56;;;;;;;;;0.00;0.00;;;;;13.88;64.30;101485.69;2016057;28;2712806;-77
2024/03/16 01:14:09;;;;;;;;;0.00;0.00;;;;;13.90;63.88;101484.69;2046931;28;2705482;-77
2024/03/16 01:15:22;;;;;;;;;0.00;0.00;;;;;13.88;63.67;101481.25;2011321;28;2727693;-76
2024/03/16 01:16:35;;;;;;;;;1.00;0.00;;;;;13.90;62.90;101486.50;2031272;28;2724244;-76
2024/03/16 01:17:48;;;;;;;;;1.17;0.00;;;;;13.77;63.50;101467.56;2030147;28;2725298;-76
2024/03/16 01:19:02;;;;;;;;;2.00;0.00;;;;;13.87;63.09;101483.94;2037557;28;2725276;-77
2024/03/16 01:20:15;;;;;;;;;0.00;0.00;;;;;13.79;62.58;101482.44;2010213;28;2725270;-77
2024/03/16 01:21:28;;;;;;;;;0.00;0.00;;;;;13.75;62.86;101482.59;2032640;28;2706540;-77
2024/03/16 01:22:42;;;;;;;;;0.00;0.00;;;;;13.78;63.20;101493.06;2030150;28;2725293;-77
2024/03/16 01:23:55;;;;;;;;;0.00;0.00;;;;;13.77;63.45;101496.63;2038137;28;2727361;-76
2024/03/16 01:25:08;;;;;;;;;0.00;0.00;;;;;13.78;63.34;101495.72;2024540;28;2718030;-76
2024/03/16 01:26:21;;;;;;;;;0.00;0.00;;;;;13.76;63.32;101492.22;2046918;28;2724220;-76
2024/03/16 01:27:34;;;;;;;;;0.00;0.00;;;;;13.76;62.80;101502.81;2023385;28;2725308;-77
2024/03/16 01:28:48;;;;;;;;;0.00;0.00;;;;;13.75;63.20;101494.03;2046852;28;2716933;-76
2024/03/16 01:30:02;;;;;;;;;0.00;0.00;;;;;13.72;63.59;101497.66;2035100;28;2723550;-76
2024/03/16 01:31:15;;;;;;;;;0.00;0.00;;;;;13.74;63.16;101492.28;2023955;28;2721084;-76
2024/03/16 01:32:28;;;;;;;;;0.00;0.00;;;;;13.75;62.38;101501.97;2039785;28;2718071;-77
2024/03/16 01:33:41;;;;;;;;;1.00;0.00;;;;;13.76;63.42;101497.50;2022854;28;2722133;-77
2024/03/16 01:34:55;;;;;;;;;0.00;0.00;;;;;13.78;63.29;101508.91;2023308;28;2722145;-76
2024/03/16 01:36:08;;;;;;;;;0.00;0.00;;;;;13.76;63.15;101494.88;2046852;28;2704449;-77
2024/03/16 01:37:21;;;;;;;;;0.00;0.00;;;;;13.80;63.29;101507.91;2037143;28;2725266;-76
2024/03/16 01:38:36;;;;;;;;;0.17;0.17;;;;;13.83;63.38;101509.59;2030978;28;2731519;-77
2024/03/16 01:39:49;;;;;;;;;1.00;0.83;;;;;13.85;63.63;101513.06;2015642;28;2733607;-76
2024/03/16 01:41:03;;;;;;;;;1.00;0.00;;;;;13.87;63.39;101510.38;2022439;28;2722137;-76
2024/03/16 01:42:16;;;;;;;;;0.17;0.00;;;;;13.87;63.08;101511.25;2052470;28;2705526;-77
2024/03/16 01:43:30;;;;;;;;;0.00;0.00;;;;;13.89;62.81;101519.97;2038832;28;2714882;-77
2024/03/16 01:45:04;;;;;;;;;0.00;0.00;;;;;13.90;63.64;101519.03;2039313;28;2704454;-76
2024/03/16 01:46:17;;;;;;;;;0.00;0.00;;;;;13.87;63.38;101505.09;2034054;28;2728392;-76
2024/03/16 01:47:31;;;;;;;;;0.00;0.00;;;;;13.89;63.47;101513.81;2015602;28;2708676;-76
2024/03/16 01:48:46;;;;;;;;;0.00;0.00;;;;;13.88;63.72;101515.59;2038820;28;2710683;-75
2024/03/16 01:49:59;;;;;;;;;0.00;0.00;;;;;13.92;63.55;101511.94;2032748;28;2700323;-77
2024/03/16 01:51:12;;;;;;;;;1.00;0.00;;;;;13.90;63.62;101516.41;2035680;28;2725250;-76
2024/03/16 01:52:28;;;;;;;;;0.00;0.00;;;;;13.90;63.25;101513.75;2014005;28;2725277;-76
2024/03/16 01:53:41;;;;;;;;;0.00;0.00;;;;;13.92;63.79;101524.28;2046516;28;2715868;-75
2024/03/16 01:54:55;;;;;;;;;0.00;0.00;;;;;13.82;62.99;101514.03;2028647;28;2725270;-77
2024/03/16 01:56:08;;;;;;;;;0.00;0.00;;;;;13.86;63.25;101520.06;2030693;28;2731610;-76
2024/03/16 01:57:22;;;;;;;;;1.00;0.00;;;;;13.86;63.76;101517.44;2022339;28;2728387;-76
2024/03/16 01:58:43;;;;;;;;;0.00;0.00;;;;;13.88;63.55;101518.22;2023580;28;2724582;-76
2024/03/16 01:59:56;;;;;;;;;0.50;0.00;;;;;13.96;63.76;101525.91;2023268;28;2723272;-76
2024/03/16 02:01:09;;;;;;;;;0.17;0.17;;;;;13.95;63.54;101527.69;2045678;28;2735737;-76
2024/03/16 02:02:32;;;;;;;;;0.00;0.00;;;;;14.01;63.54;101537.19;2010138;28;2712755;-77
2024/03/16 02:03:46;;;;;;;;;0.00;0.00;;;;;13.98;63.88;101526.72;2027793;28;2724241;-76
2024/03/16 02:05:00;;;;;;;;;0.00;0.00;;;;;14.04;63.85;101536.22;2007422;28;2725290;-76
2024/03/16 02:06:13;;;;;;;;;0.00;0.00;;;;;14.03;63.81;101531.81;2038329;28;2727349;-76
2024/03/16 02:07:26;;;;;;;;;0.00;0.00;;;;;14.06;63.89;101537.00;2014368;28;2723690;-76
2024/03/16 02:08:39;;;;;;;;;0.00;0.00;;;;;14.06;64.19;101535.25;2037996;28;2723207;-76
2024/03/16 02:09:53;;;;;;;;;1.83;0.00;;;;;14.11;63.90;101528.91;2015866;28;2725266;-76
2024/03/16 02:11:06;;;;;;;;;0.00;0.00;;;;;14.10;64.20;101522.75;2022103;28;2704489;-76
2024/03/16 02:12:19;;;;;;;;;0.00;0.00;;;;;14.13;64.13;101532.38;2045202;28;2725317;-75
2024/03/16 02:13:32;;;;;;;;;1.67;0.00;;;;;14.07;63.58;101517.59;2044918;28;2729425;-75
2024/03/16 02:14:45;;;;;;;;;0.00;0.00;;;;;14.10;63.49;101533.34;2012374;28;2730474;-75
2024/03/16 02:15:59;;;;;;;;;0.00;0.00;;;;;14.05;63.66;101530.03;2015063;28;2724237;-75
2024/03/16 02:17:12;;;;;;;;;0.00;0.00;;;;;14.06;64.14;101535.25;2022277;28;2726308;-75
2024/03/16 02:18:25;;;;;;;;;0.00;0.00;;;;;14.10;63.34;101535.16;2045704;28;2721095;-76
2024/03/16 02:19:38;;;;;;;;;0.00;0.00;;;;;13.97;63.29;101524.13;2046069;28;2725290;-76
2024/03/16 02:20:51;;;;;;;;;0.00;0.00;;;;;14.02;63.65;101538.91;2046129;28;2719016;-76
2024/03/16 02:22:05;;;;;;;;;0.33;0.00;;;;;13.99;63.86;101539.03;2005884;28;2726307;-76
2024/03/16 02:23:19;;;;;;;;;0.17;0.17;;;;;13.98;63.48;101539.91;2028894;28;2725282;-76
2024/03/16 02:24:33;;;;;;;;;0.00;0.00;;;;;13.93;63.71;101532.16;2007221;28;2735686;-76
2024/03/16 02:25:47;;;;;;;;;0.00;0.00;;;;;13.99;63.78;101548.72;2015454;28;2733937;-76
2024/03/16 02:27:00;;;;;;;;;0.17;0.00;;;;;13.94;63.64;101536.53;2022438;28;2716936;-76
2024/03/16 02:28:13;;;;;;;;;0.00;0.00;;;;;13.94;63.22;101535.66;2030105;28;2725274;-77
2024/03/16 02:29:27;;;;;;;;;1.33;0.00;;;;;13.94;63.67;101548.88;1998975;28;2728801;-76
2024/03/16 02:30:40;;;;;;;;;1.00;0.00;;;;;13.94;63.41;101544.47;2032347;28;2722137;-76
2024/03/16 02:31:54;;;;;;;;;0.17;0.17;;;;;13.91;63.55;101543.69;2013938;28;2725273;-76
2024/03/16 02:33:11;;;;;;;;;0.00;0.00;;;;;13.93;63.60;101553.28;2014452;28;2724778;-76
2024/03/16 02:34:24;;;;;;;;;0.00;0.00;;;;;13.87;63.50;101535.03;2023378;28;2714850;-76
2024/03/16 02:35:38;;;;;;;;;0.00;0.00;;;;;13.93;63.83;101552.44;2046405;28;2721118;-76
2024/03/16 02:36:51;;;;;;;;;0.00;0.00;;;;;13.91;64.00;101551.63;2044839;28;2691949;-76
2024/03/16 02:38:04;;;;;;;;;0.00;0.00;;;;;13.93;63.89;101545.38;2037488;28;2719005;-77
2024/03/16 02:39:17;;;;;;;;;0.00;0.00;;;;;13.89;63.46;101551.69;2007496;28;2724245;-76
2024/03/16 02:40:31;;;;;;;;;0.00;0.00;;;;;13.96;63.36;101565.53;2030388;28;2721104;-76
2024/03/16 02:41:44;;;;;;;;;0.00;0.00;;;;;13.96;63.78;101570.81;2021426;28;2714843;-76
2024/03/16 02:42:58;;;;;;;;;0.00;0.00;;;;;13.92;63.75;101562.16;2037760;28;2719034;-76
2024/03/16 02:44:11;;;;;;;;;0.33;0.00;;;;;13.93;64.18;101555.94;2038894;28;2701316;-76
2024/03/16 02:45:24;;;;;;;;;0.00;0.00;;;;;13.92;63.58;101545.44;2036724;28;2725266;-76
2024/03/16 02:46:37;;;;;;;;;0.00;0.00;;;;;13.88;64.02;101542.00;2022722;28;2716949;-76
2024/03/16 02:47:50;;;;;;;;;0.00;0.00;;;;;13.89;63.44;101559.63;2046369;28;2712751;-76
2024/03/16 02:49:04;;;;;;;;;0.00;0.00;;;;;13.87;63.54;101564.09;2031462;28;2702378;-76
2024/03/16 02:50:17;;;;;;;;;0.00;0.00;;;;;13.88;63.41;101567.59;2034615;28;2725281;-76
2024/03/16 02:51:30;;;;;;;;;0.00;0.00;;;;;13.88;63.74;101571.09;2050079;28;2724207;-76
2024/03/16 02:52:42;;;;;;;;;0.00;0.00;;;;;13.88;63.31;101576.38;2017330;28;2722138;-76
2024/03/16 02:53:58;;;;;;;;;0.00;0.00;;;;;13.86;63.08;101569.41;2031513;28;2724237;-76
2024/03/16 02:55:11;;;;;;;;;0.00;0.00;;;;;13.78;63.34;101567.88;2033443;28;2696089;-76
2024/03/16 02:56:25;;;;;;;;;0.00;0.00;;;;;13.82;63.46;101571.31;2045649;28;2721594;-76
2024/03/16 02:57:38;;;;;;;;;0.00;0.00;;;;;13.79;63.34;101571.41;2046758;28;2715338;-76
2024/03/16 02:58:51;;;;;;;;;0.00;0.00;;;;;13.76;63.13;101575.00;2047231;28;2704437;-76
2024/03/16 03:00:11;;;;;;;;;0.00;0.00;;;;;13.79;63.46;101582.84;2046092;28;2716933;-76
2024/03/16 03:01:24;;;;;;;;;0.00;0.00;;;;;13.79;63.41;101581.97;2046404;28;2721103;-76
2024/03/16 03:02:38;;;;;;;;;0.00;0.00;;;;;13.76;63.54;101587.34;2020605;28;2706596;-76
2024/03/16 03:03:51;;;;;;;;;0.00;0.00;;;;;13.73;63.32;101583.03;2041589;28;2721199;-76
2024/03/16 03:05:06;;;;;;;;;0.00;0.00;;;;;13.74;63.58;101590.03;2035905;28;2721104;-77
2024/03/16 03:06:20;;;;;;;;;0.00;0.00;;;;;13.64;63.46;101578.91;2036539;28;2702351;-76
2024/03/16 03:07:34;;;;;;;;;0.00;0.00;;;;;13.66;63.38;101578.84;2039560;28;2701293;-77
2024/03/16 03:08:48;;;;;;;;;0.00;0.00;;;;;13.64;63.81;101586.84;2036473;28;2722218;-76
2024/03/16 03:10:01;;;;;;;;;0.17;0.00;;;;;13.70;64.17;101594.56;2037659;28;2725255;-76
2024/03/16 03:11:14;;;;;;;;;0.00;0.00;;;;;13.65;63.51;101585.06;2021800;28;2721124;-76
2024/03/16 03:12:28;;;;;;;;;0.00;0.00;;;;;13.72;63.87;101591.88;2035917;28;2701321;-76
2024/03/16 03:13:41;;;;;;;;;0.00;0.00;;;;;13.69;63.53;101597.25;2038432;28;2707574;-76
2024/03/16 03:14:54;;;;;;;;;0.00;0.00;;;;;13.69;64.02;101598.13;2045440;28;2703411;-76
2024/03/16 03:16:07;;;;;;;;;0.00;0.00;;;;;13.68;63.47;101601.66;2036930;28;2715938;-77
2024/03/16 03:17:20;;;;;;;;;0.00;0.00;;;;;13.62;63.20;101599.25;2030932;28;2723222;-76
2024/03/16 03:18:34;;;;;;;;;0.00;0.00;;;;;13.67;63.41;101607.00;2038133;28;2715902;-77
2024/03/16 03:19:47;;;;;;;;;0.00;0.00;;;;;13.62;63.67;101607.16;2040036;28;2720050;-76
2024/03/16 03:21:00;;;;;;;;;0.00;0.00;;;;;13.67;63.35;101609.66;2022207;28;2722184;-76
2024/03/16 03:22:13;;;;;;;;;0.33;0.33;;;;;13.61;62.98;101602.78;2022638;28;2733599;-77
2024/03/16 03:23:28;;;;;;;;;0.00;0.00;;;;;13.59;62.77;101612.53;2022577;28;2725270;-77
2024/03/16 03:24:41;;;;;;;;;0.00;0.00;;;;;13.53;63.33;101610.91;2043129;28;2712758;-77
2024/03/16 03:25:54;;;;;;;;;0.00;0.00;;;;;13.54;63.47;101610.00;2014862;28;2725306;-76
2024/03/16 03:27:07;;;;;;;;;0.00;0.00;;;;;13.52;63.65;101603.91;2046940;28;2713881;-76
2024/03/16 03:28:20;;;;;;;;;0.00;0.00;;;;;13.52;63.67;101603.03;2022087;28;2727369;-76
2024/03/16 03:29:34;;;;;;;;;0.00;0.00;;;;;13.47;63.91;101592.63;2021540;28;2716940;-76
2024/03/16 03:30:48;;;;;;;;;0.33;0.00;;;;;13.60;63.38;101609.00;2046008;28;2704496;-76
2024/03/16 03:32:02;;;;;;;;;1.00;0.00;;;;;13.57;63.56;101604.66;2038296;28;2706513;-76
2024/03/16 03:33:15;;;;;;;;;0.00;0.00;;;;;13.57;63.48;101604.66;2037413;28;2714881;-76
2024/03/16 03:34:28;;;;;;;;;0.00;0.00;;;;;13.57;63.27;101606.44;2039125;28;2719029;-77
2024/03/16 03:35:41;;;;;;;;;0.00;0.00;;;;;13.59;63.63;101610.75;2022715;28;2722129;-76
2024/03/16 03:36:55;;;;;;;;;0.00;0.00;;;;;13.59;63.94;101613.41;2042300;28;2719379;-76
2024/03/16 03:38:08;;;;;;;;;0.00;0.00;;;;;13.57;63.92;101609.09;2021444;28;2722180;-77
2024/03/16 03:39:24;;;;;;;;;0.67;0.00;;;;;13.64;63.71;101631.75;2038206;28;2712775;-76
2024/03/16 03:40:37;;;;;;;;;0.00;0.00;;;;;13.62;64.39;101623.00;2040052;28;2722146;-76
2024/03/16 03:41:51;;;;;;;;;0.00;0.00;;;;;13.58;63.82;101613.47;2056048;28;2704484;-76
2024/03/16 03:43:05;;;;;;;;;1.00;0.00;;;;;13.63;63.84;101621.25;2032959;28;2719020;-77
2024/03/16 03:44:23;;;;;;;;;0.00;0.00;;;;;13.59;63.84;101623.09;2028026;28;2721122;-76
2024/03/16 03:46:56;;;;;;;;;0.00;0.00;;;;;13.58;64.10;101616.09;2039677;28;2721584;-76
2024/03/16 03:49:50;;;;;;;;;0.33;0.33;;;;;13.55;63.80;101632.00;2042275;28;2731523;-76
2024/03/16 03:51:03;;;;;;;;;0.00;0.00;;;;;13.56;64.17;101647.81;2024890;28;2713234;-76
2024/03/16 03:52:17;;;;;;;;;1.17;0.00;;;;;13.54;64.01;101636.41;2038698;28;2721485;-77
2024/03/16 03:53:30;;;;;;;;;0.00;0.00;;;;;13.53;63.95;101629.41;2017378;28;2710714;-76
2024/03/16 03:54:44;;;;;;;;;0.00;0.00;;;;;13.53;64.15;101639.97;2047453;28;2724216;-76
2024/03/16 03:55:57;;;;;;;;;0.00;0.00;;;;;13.54;63.96;101640.84;2047481;28;2704429;-76
2024/03/16 03:57:10;;;;;;;;;0.00;0.00;;;;;13.52;64.13;101650.59;2047101;28;2716972;-76
2024/03/16 03:58:24;;;;;;;;;0.00;0.00;;;;;13.49;64.16;101644.50;2046469;28;2733602;-76
2024/03/16 03:59:37;;;;;;;;;0.50;0.00;;;;;13.43;64.19;101644.69;2025033;28;2721088;-76
2024/03/16 04:00:50;;;;;;;;;0.00;0.00;;;;;13.46;64.22;101655.13;2013838;28;2717326;-76
2024/03/16 04:02:03;;;;;;;;;0.17;0.00;;;;;13.47;64.28;101651.59;2032355;28;2716926;-76
2024/03/16 04:03:17;;;;;;;;;0.00;0.00;;;;;13.53;64.64;101660.25;2017520;28;2717982;-76
2024/03/16 04:04:30;;;;;;;;;0.00;0.00;;;;;13.49;64.58;101649.78;2024534;28;2716929;-76
2024/03/16 04:05:43;;;;;;;;;0.00;0.00;;;;;13.49;64.38;101644.50;2047191;28;2720070;-76
2024/03/16 04:06:57;;;;;;;;;0.00;0.00;;;;;13.57;64.40;101665.41;2047903;28;2710694;-76
2024/03/16 04:08:10;;;;;;;;;0.33;0.33;;;;;13.60;64.24;101667.09;2046300;28;2733634;-77
2024/03/16 04:09:23;;;;;;;;;0.00;0.00;;;;;13.57;64.64;101662.78;2043219;28;2707590;-76
2024/03/16 04:10:37;;;;;;;;;0.00;0.00;;;;;13.57;64.49;101664.56;2023098;28;2723202;-76
2024/03/16 04:11:50;;;;;;;;;0.00;0.00;;;;;13.55;64.63;101653.13;2046032;28;2709654;-76
2024/03/16 04:13:04;;;;;;;;;0.00;0.00;;;;;13.58;64.52;101661.84;2023521;28;2721210;-76
2024/03/16 04:14:19;;;;;;;;;0.00;0.00;;;;;13.56;64.46;101666.31;2039371;28;2700251;-76
2024/03/16 04:15:32;;;;;;;;;0.00;0.00;;;;;13.61;64.87;101664.41;2029550;28;2719021;-77
2024/03/16 04:16:47;;;;;;;;;0.00;0.00;;;;;13.63;64.43;101672.28;2039060;28;2721095;-77
2024/03/16 04:18:00;;;;;;;;;0.00;0.00;;;;;13.65;64.98;101674.88;2037894;28;2721096;-76
2024/03/16 04:19:15;;;;;;;;;0.00;0.00;;;;;13.64;64.50;101671.38;2039781;28;2716921;-76
2024/03/16 04:20:29;;;;;;;;;0.00;0.00;;;;;13.64;64.19;101667.84;2046386;28;2716944;-76
2024/03/16 04:21:43;;;;;;;;;0.00;0.00;;;;;13.63;64.51;101660.88;2038133;28;2721928;-77
2024/03/16 04:22:56;;;;;;;;;0.00;0.00;;;;;13.61;64.50;101655.59;2009034;28;2708961;-76
2024/03/16 04:24:09;;;;;;;;;0.00;0.00;;;;;13.57;64.46;101659.25;2040281;28;2711760;-76
2024/03/16 04:25:23;;;;;;;;;0.00;0.00;;;;;13.61;64.76;101664.41;2037540;28;2704426;-76
2024/03/16 04:26:36;;;;;;;;;0.00;0.00;;;;;13.60;64.33;101661.81;2030750;28;2710683;-76
2024/03/16 04:27:49;;;;;;;;;0.00;0.00;;;;;13.59;64.46;101666.22;2038558;28;2704464;-76
2024/03/16 04:29:02;;;;;;;;;0.00;0.00;;;;;13.60;64.43;101670.63;2038933;28;2723230;-76
2024/03/16 04:30:15;;;;;;;;;0.00;0.00;;;;;13.61;64.90;101668.81;2047521;28;2721088;-76
2024/03/16 04:31:30;;;;;;;;;0.00;0.00;;;;;13.60;64.99;101669.75;2045254;28;2704497;-76
2024/03/16 04:32:44;;;;;;;;;0.00;0.00;;;;;13.56;64.53;101662.78;2042782;28;2704425;-76
2024/03/16 04:33:58;;;;;;;;;0.00;0.00;;;;;13.59;64.54;101673.28;2045849;28;2721095;-76
2024/03/16 04:35:11;;;;;;;;;0.00;0.00;;;;;13.58;65.00;101666.28;2029810;28;2727409;-76
2024/03/16 04:36:25;;;;;;;;;0.00;0.00;;;;;13.61;64.51;101674.09;2038076;28;2721091;-76
2024/03/16 04:37:38;;;;;;;;;0.00;0.00;;;;;13.57;65.05;101675.13;2038197;28;2719004;-76
2024/03/16 04:38:51;;;;;;;;;0.00;0.00;;;;;13.58;65.16;101674.22;2032052;28;2719024;-76
2024/03/16 04:40:05;;;;;;;;;0.00;0.00;;;;;13.59;64.70;101668.88;2014288;28;2722147;-76
2024/03/16 04:41:19;;;;;;;;;0.00;0.00;;;;;13.61;65.07;101679.38;2041646;28;2721091;-76
2024/03/16 04:42:32;;;;;;;;;2.67;0.33;;;;;13.61;64.66;101680.25;2014786;28;2731560;-76
2024/03/16 04:43:47;;;;;;;;;1.00;0.00;;;;;13.60;64.60;101683.81;2008622;28;2714937;-77
2024/03/16 04:45:00;;;;;;;;;0.67;0.00;;;;;13.64;64.68;101686.34;2015583;28;2710699;-76
2024/03/16 04:46:13;;;;;;;;;0.00;0.00;;;;;13.63;65.20;101687.28;2038375;28;2729429;-76
2024/03/16 04:47:26;;;;;;;;;0.00;0.00;;;;;13.63;64.84;101693.41;2024231;28;2712818;-76
2024/03/16 04:48:40;;;;;;;;;0.00;0.00;;;;;13.60;64.82;101693.53;2037262;28;2721112;-76
2024/03/16 04:49:53;;;;;;;;;0.00;0.00;;;;;13.64;64.76;101700.44;2024316;28;2714881;-76
2024/03/16 04:51:06;;;;;;;;;0.00;0.00;;;;;13.63;65.21;101705.78;2036061;28;2725273;-76
2024/03/16 04:52:19;;;;;;;;;0.00;0.00;;;;;13.66;64.69;101705.66;2016493;28;2710766;-76
2024/03/16 04:53:32;;;;;;;;;0.00;0.00;;;;;13.63;64.55;101701.31;2036405;28;2717459;-77
2024/03/16 04:54:46;;;;;;;;;0.00;0.00;;;;;13.65;64.98;101706.59;2026581;28;2692390;-76
2024/03/16 04:55:59;;;;;;;;;0.00;0.00;;;;;13.64;65.04;101715.41;2033517;28;2724727;-76
2024/03/16 04:57:12;;;;;;;;;0.00;0.00;;;;;13.61;64.99;101711.06;2016013;28;2710706;-77
2024/03/16 04:58:25;;;;;;;;;0.00;0.00;;;;;13.53;64.89;101702.50;2046484;28;2719005;-76
2024/03/16 04:59:39;;;;;;;;;2.17;0.50;;;;;13.58;64.99;101703.28;2037002;28;2736754;-77
2024/03/16 05:00:52;;;;;;;;;0.00;0.00;;;;;13.55;65.37;101706.84;2013002;28;2722149;-76
2024/03/16 05:02:06;;;;;;;;;0.00;0.00;;;;;13.53;65.44;101699.88;2016083;28;2721095;-76
2024/03/16 05:03:19;;;;;;;;;0.00;0.00;;;;;13.58;65.12;101708.56;2046024;28;2722160;-76
2024/03/16 05:04:32;;;;;;;;;0.00;0.00;;;;;13.54;65.34;101714.78;2021419;28;2724248;-76
2024/03/16 05:05:45;;;;;;;;;0.00;0.00;;;;;13.60;65.71;101706.72;2008659;28;2724617;-76
2024/03/16 05:06:59;;;;;;;;;0.00;0.00;;;;;13.57;65.23;101710.31;2031312;28;2725659;-76
2024/03/16 05:08:12;;;;;;;;;0.00;0.00;;;;;13.64;65.50;101721.56;2040235;28;2722523;-76
2024/03/16 05:09:25;;;;;;;;;0.00;0.00;;;;;13.67;65.72;101715.31;2017080;28;2725273;-76
2024/03/16 05:10:38;;;;;;;;;0.00;0.00;;;;;13.66;65.40;101716.22;2042672;28;2725310;-76
2024/03/16 05:11:52;;;;;;;;;0.00;0.00;;;;;13.68;65.85;101725.00;2029155;28;2725274;-76
2024/03/16 05:13:05;;;;;;;;;0.00;0.00;;;;;13.69;65.69;101716.13;2037416;28;2722130;-76
2024/03/16 05:14:18;;;;;;;;;0.00;0.00;;;;;13.72;65.64;101727.50;2013177;28;2725278;-76
2024/03/16 05:15:31;;;;;;;;;0.00;0.00;;;;;13.72;65.61;101719.56;2034468;28;2724228;-76
2024/03/16 05:16:44;;;;;;;;;0.67;0.00;;;;;13.77;65.61;101721.19;2015821;28;2722163;-76
2024/03/16 05:17:57;;;;;;;;;0.00;0.00;;;;;13.81;65.98;101731.63;2046407;28;2725302;-76
2024/03/16 05:19:11;;;;;;;;;0.00;0.00;;;;;13.79;65.62;101729.94;2013802;28;2725353;-76
2024/03/16 05:20:24;;;;;;;;;0.00;0.00;;;;;13.80;65.65;101737.78;2031161;28;2725282;-76
2024/03/16 05:21:37;;;;;;;;;0.00;0.00;;;;;13.81;65.37;101742.19;2015479;28;2721099;-76
2024/03/16 05:22:50;;;;;;;;;0.00;0.00;;;;;13.78;65.65;101739.63;2042128;28;2724280;-76
2024/03/16 05:24:04;;;;;;;;;0.00;0.00;;;;;13.78;65.75;101749.34;2046060;28;2728407;-76
2024/03/16 05:25:17;;;;;;;;;0.00;0.00;;;;;13.78;65.99;101744.91;2017155;28;2720065;-76
2024/03/16 05:26:31;;;;;;;;;0.00;0.00;;;;;13.75;65.66;101744.16;2041504;28;2725270;-76
2024/03/16 05:27:44;;;;;;;;;2.00;0.00;;;;;13.76;65.82;101751.16;2053782;28;2731519;-76
2024/03/16 05:28:58;;;;;;;;;0.33;0.00;;;;;13.70;65.50;101745.13;2014652;28;2725266;-76
2024/03/16 05:30:11;;;;;;;;;0.00;0.00;;;;;13.78;65.61;101770.50;2038012;28;2719024;-76
2024/03/16 05:31:25;;;;;;;;;0.00;0.00;;;;;13.69;65.46;101748.72;2045432;28;2727364;-76
2024/03/16 05:32:39;;;;;;;;;0.00;0.00;;;;;13.69;66.01;101750.47;2037157;28;2729457;-76
2024/03/16 05:33:52;;;;;;;;;0.00;0.00;;;;;13.71;65.46;101765.38;2015898;28;2725308;-77
2024/03/16 05:35:08;;;;;;;;;0.00;0.00;;;;;13.68;65.63;101756.69;2022912;28;2712799;-76
2024/03/16 05:36:21;;;;;;;;;0.00;0.00;;;;;13.67;65.24;101757.59;2037153;28;2725290;-76
2024/03/16 05:37:35;;;;;;;;;0.00;0.00;;;;;13.68;65.70;101764.63;2029726;28;2731996;-76